sensor_id;sensor_type;location;lat;lon;timestamp;P1;durP1;ratioP1;P2;durP2;ratioP2
5904;SDS011;2978;42.012;24.880;2022-09-09T00:14:55;4.87;;;4.37;;
5904;SDS011;2978;42.012;24.880;2022-09-09T00:20:16;5.83;;;4.50;;
5904;SDS011;2978;42.012;24.880;2022-09-09T00:23:00;6.23;;;4.50;;
5904;SDS011;2978;42.012;24.880;2022-09-09T00:25:29;5.23;;;4.30;;
5904;SDS011;2978;42.012;24.880;2022-09-09T00:28:02;5.63;;;4.00;;
5904;SDS011;2978;42.012;24.880;2022-09-09T00:30:39;6.93;;;4.60;;
5904;SDS011;2978;42.012;24.880;2022-09-09T00:33:12;5.37;;;4.10;;
5904;SDS011;2978;42.012;24.880;2022-09-09T00:35:58;5.80;;;4.17;;
5904;SDS011;2978;42.012;24.880;2022-09-09T00:38:38;6.93;;;4.43;;
5904;SDS011;2978;42.012;24.880;2022-09-09T00:41:20;5.70;;;4.20;;
5904;SDS011;2978;42.012;24.880;2022-09-09T00:44:14;5.73;;;4.70;;
5904;SDS011;2978;42.012;24.880;2022-09-09T00:56:18;4.87;;;4.40;;
5904;SDS011;2978;42.012;24.880;2022-09-09T00:58:58;5.67;;;4.50;;
5904;SDS011;2978;42.012;24.880;2022-09-09T01:01:30;10.47;;;5.77;;
5904;SDS011;2978;42.012;24.880;2022-09-09T01:03:56;10.07;;;6.10;;
5904;SDS011;2978;42.012;24.880;2022-09-09T01:11:41;8.27;;;6.50;;
5904;SDS011;2978;42.012;24.880;2022-09-09T01:14:30;14.83;;;7.23;;
5904;SDS011;2978;42.012;24.880;2022-09-09T01:17:10;15.23;;;7.90;;
5904;SDS011;2978;42.012;24.880;2022-09-09T01:20:13;31.07;;;8.03;;
5904;SDS011;2978;42.012;24.880;2022-09-09T01:28:36;10.80;;;7.13;;
5904;SDS011;2978;42.012;24.880;2022-09-09T01:31:04;16.60;;;8.47;;
5904;SDS011;2978;42.012;24.880;2022-09-09T01:33:31;14.10;;;7.77;;
5904;SDS011;2978;42.012;24.880;2022-09-09T01:36:03;15.30;;;7.63;;
5904;SDS011;2978;42.012;24.880;2022-09-09T01:38:33;15.23;;;8.40;;
5904;SDS011;2978;42.012;24.880;2022-09-09T01:41:01;18.23;;;8.97;;
5904;SDS011;2978;42.012;24.880;2022-09-09T01:43:27;12.87;;;8.30;;
5904;SDS011;2978;42.012;24.880;2022-09-09T01:45:54;14.90;;;8.50;;
5904;SDS011;2978;42.012;24.880;2022-09-09T01:48:22;14.63;;;9.23;;
5904;SDS011;2978;42.012;24.880;2022-09-09T01:50:49;14.63;;;8.10;;
5904;SDS011;2978;42.012;24.880;2022-09-09T01:53:15;13.73;;;8.50;;
5904;SDS011;2978;42.012;24.880;2022-09-09T01:55:45;12.93;;;8.97;;
5904;SDS011;2978;42.012;24.880;2022-09-09T02:03:50;15.73;;;9.07;;
5904;SDS011;2978;42.012;24.880;2022-09-09T02:06:32;11.03;;;9.23;;
5904;SDS011;2978;42.012;24.880;2022-09-09T02:09:01;17.17;;;9.93;;
5904;SDS011;2978;42.012;24.880;2022-09-09T02:11:32;18.73;;;10.30;;
5904;SDS011;2978;42.012;24.880;2022-09-09T02:14:05;15.50;;;9.27;;
5904;SDS011;2978;42.012;24.880;2022-09-09T02:21:46;19.20;;;10.03;;
5904;SDS011;2978;42.012;24.880;2022-09-09T02:24:12;24.53;;;10.47;;
5904;SDS011;2978;42.012;24.880;2022-09-09T02:26:41;24.03;;;9.67;;
5904;SDS011;2978;42.012;24.880;2022-09-09T02:29:13;16.00;;;9.77;;
5904;SDS011;2978;42.012;24.880;2022-09-09T02:31:43;23.63;;;10.70;;
5904;SDS011;2978;42.012;24.880;2022-09-09T02:34:10;24.03;;;10.93;;
5904;SDS011;2978;42.012;24.880;2022-09-09T02:36:38;22.50;;;11.27;;
5904;SDS011;2978;42.012;24.880;2022-09-09T02:39:07;24.03;;;10.90;;
5904;SDS011;2978;42.012;24.880;2022-09-09T02:41:36;28.40;;;9.83;;
5904;SDS011;2978;42.012;24.880;2022-09-09T02:44:13;23.97;;;10.90;;
5904;SDS011;2978;42.012;24.880;2022-09-09T02:52:02;18.30;;;9.27;;
5904;SDS011;2978;42.012;24.880;2022-09-09T02:54:32;12.40;;;7.37;;
5904;SDS011;2978;42.012;24.880;2022-09-09T02:57:10;14.33;;;7.37;;
5904;SDS011;2978;42.012;24.880;2022-09-09T02:59:39;15.47;;;8.40;;
5904;SDS011;2978;42.012;24.880;2022-09-09T03:02:06;14.90;;;8.03;;
5904;SDS011;2978;42.012;24.880;2022-09-09T03:04:32;14.50;;;8.20;;
5904;SDS011;2978;42.012;24.880;2022-09-09T03:06:58;13.83;;;6.47;;
5904;SDS011;2978;42.012;24.880;2022-09-09T03:09:24;9.90;;;5.93;;
5904;SDS011;2978;42.012;24.880;2022-09-09T03:11:51;8.20;;;5.50;;
5904;SDS011;2978;42.012;24.880;2022-09-09T03:14:16;8.80;;;5.70;;
5904;SDS011;2978;42.012;24.880;2022-09-09T03:16:46;7.03;;;5.43;;
5904;SDS011;2978;42.012;24.880;2022-09-09T03:19:11;13.57;;;7.30;;
5904;SDS011;2978;42.012;24.880;2022-09-09T03:21:37;13.60;;;9.20;;
5904;SDS011;2978;42.012;24.880;2022-09-09T03:24:02;17.80;;;8.20;;
5904;SDS011;2978;42.012;24.880;2022-09-09T03:26:28;14.47;;;9.83;;
5904;SDS011;2978;42.012;24.880;2022-09-09T03:28:55;20.40;;;9.00;;
5904;SDS011;2978;42.012;24.880;2022-09-09T03:31:21;18.77;;;9.70;;
5904;SDS011;2978;42.012;24.880;2022-09-09T03:33:46;20.03;;;11.00;;
5904;SDS011;2978;42.012;24.880;2022-09-09T03:36:12;21.93;;;10.60;;
5904;SDS011;2978;42.012;24.880;2022-09-09T03:38:37;27.57;;;9.83;;
5904;SDS011;2978;42.012;24.880;2022-09-09T03:41:03;27.20;;;10.10;;
5904;SDS011;2978;42.012;24.880;2022-09-09T03:43:31;23.17;;;9.90;;
5904;SDS011;2978;42.012;24.880;2022-09-09T03:45:57;11.20;;;6.57;;
5904;SDS011;2978;42.012;24.880;2022-09-09T03:48:23;12.90;;;6.87;;
5904;SDS011;2978;42.012;24.880;2022-09-09T03:50:51;10.20;;;6.00;;
5904;SDS011;2978;42.012;24.880;2022-09-09T03:53:18;9.00;;;5.37;;
5904;SDS011;2978;42.012;24.880;2022-09-09T03:55:45;9.90;;;6.17;;
5904;SDS011;2978;42.012;24.880;2022-09-09T03:58:13;15.10;;;6.07;;
5904;SDS011;2978;42.012;24.880;2022-09-09T04:00:39;10.00;;;5.90;;
5904;SDS011;2978;42.012;24.880;2022-09-09T04:03:08;13.97;;;6.03;;
5904;SDS011;2978;42.012;24.880;2022-09-09T04:05:34;9.87;;;6.07;;
5904;SDS011;2978;42.012;24.880;2022-09-09T04:08:00;10.60;;;6.03;;
5904;SDS011;2978;42.012;24.880;2022-09-09T04:10:26;9.70;;;6.03;;
5904;SDS011;2978;42.012;24.880;2022-09-09T04:12:51;8.17;;;6.73;;
5904;SDS011;2978;42.012;24.880;2022-09-09T04:15:17;10.93;;;6.17;;
5904;SDS011;2978;42.012;24.880;2022-09-09T04:17:43;12.07;;;6.10;;
5904;SDS011;2978;42.012;24.880;2022-09-09T04:20:09;12.50;;;5.53;;
5904;SDS011;2978;42.012;24.880;2022-09-09T04:22:37;6.43;;;5.20;;
5904;SDS011;2978;42.012;24.880;2022-09-09T04:25:04;14.90;;;6.47;;
5904;SDS011;2978;42.012;24.880;2022-09-09T04:27:31;9.30;;;5.40;;
5904;SDS011;2978;42.012;24.880;2022-09-09T04:29:56;13.90;;;8.07;;
5904;SDS011;2978;42.012;24.880;2022-09-09T04:32:22;12.60;;;6.80;;
5904;SDS011;2978;42.012;24.880;2022-09-09T04:34:48;10.47;;;7.30;;
5904;SDS011;2978;42.012;24.880;2022-09-09T04:37:14;9.50;;;6.90;;
5904;SDS011;2978;42.012;24.880;2022-09-09T04:39:39;16.83;;;6.80;;
5904;SDS011;2978;42.012;24.880;2022-09-09T04:42:05;14.03;;;7.30;;
5904;SDS011;2978;42.012;24.880;2022-09-09T04:44:30;20.00;;;8.27;;
5904;SDS011;2978;42.012;24.880;2022-09-09T04:46:56;12.53;;;7.40;;
5904;SDS011;2978;42.012;24.880;2022-09-09T04:49:21;19.80;;;10.00;;
5904;SDS011;2978;42.012;24.880;2022-09-09T04:51:48;19.50;;;8.50;;
5904;SDS011;2978;42.012;24.880;2022-09-09T04:54:14;14.13;;;7.80;;
5904;SDS011;2978;42.012;24.880;2022-09-09T04:56:40;22.57;;;7.00;;
5904;SDS011;2978;42.012;24.880;2022-09-09T04:59:07;14.40;;;6.90;;
5904;SDS011;2978;42.012;24.880;2022-09-09T05:01:32;8.90;;;5.93;;
5904;SDS011;2978;42.012;24.880;2022-09-09T05:03:59;8.70;;;5.90;;
5904;SDS011;2978;42.012;24.880;2022-09-09T05:06:24;13.10;;;5.73;;
5904;SDS011;2978;42.012;24.880;2022-09-09T05:08:49;9.63;;;5.50;;
5904;SDS011;2978;42.012;24.880;2022-09-09T05:11:25;11.90;;;6.07;;
5904;SDS011;2978;42.012;24.880;2022-09-09T05:13:52;10.20;;;6.63;;
5904;SDS011;2978;42.012;24.880;2022-09-09T05:16:18;13.97;;;7.77;;
5904;SDS011;2978;42.012;24.880;2022-09-09T05:18:45;15.43;;;7.03;;
5904;SDS011;2978;42.012;24.880;2022-09-09T05:21:12;17.50;;;7.53;;
5904;SDS011;2978;42.012;24.880;2022-09-09T05:23:38;17.67;;;9.50;;
5904;SDS011;2978;42.012;24.880;2022-09-09T05:26:05;18.20;;;10.07;;
5904;SDS011;2978;42.012;24.880;2022-09-09T05:28:33;13.50;;;8.70;;
5904;SDS011;2978;42.012;24.880;2022-09-09T05:31:01;18.63;;;8.80;;
5904;SDS011;2978;42.012;24.880;2022-09-09T05:33:30;13.37;;;8.53;;
5904;SDS011;2978;42.012;24.880;2022-09-09T05:36:00;8.57;;;7.10;;
5904;SDS011;2978;42.012;24.880;2022-09-09T05:38:31;10.40;;;7.33;;
5904;SDS011;2978;42.012;24.880;2022-09-09T05:40:58;15.63;;;8.60;;
5904;SDS011;2978;42.012;24.880;2022-09-09T05:43:24;11.53;;;7.07;;
5904;SDS011;2978;42.012;24.880;2022-09-09T05:48:33;16.80;;;8.57;;
5904;SDS011;2978;42.012;24.880;2022-09-09T05:50:59;23.40;;;9.03;;
5904;SDS011;2978;42.012;24.880;2022-09-09T05:53:29;18.30;;;7.30;;
5904;SDS011;2978;42.012;24.880;2022-09-09T05:56:03;10.50;;;5.73;;
5904;SDS011;2978;42.012;24.880;2022-09-09T05:58:29;13.63;;;5.90;;
5904;SDS011;2978;42.012;24.880;2022-09-09T06:01:05;14.03;;;7.07;;
5904;SDS011;2978;42.012;24.880;2022-09-09T06:03:35;12.83;;;8.37;;
5904;SDS011;2978;42.012;24.880;2022-09-09T06:06:03;21.90;;;11.10;;
5904;SDS011;2978;42.012;24.880;2022-09-09T06:08:34;31.80;;;12.20;;
5904;SDS011;2978;42.012;24.880;2022-09-09T06:11:05;22.73;;;10.27;;
5904;SDS011;2978;42.012;24.880;2022-09-09T06:13:32;29.70;;;11.00;;
5904;SDS011;2978;42.012;24.880;2022-09-09T06:15:58;28.70;;;11.83;;
5904;SDS011;2978;42.012;24.880;2022-09-09T06:18:25;28.57;;;11.10;;
5904;SDS011;2978;42.012;24.880;2022-09-09T06:20:57;33.20;;;11.73;;
5904;SDS011;2978;42.012;24.880;2022-09-09T06:23:32;30.93;;;11.60;;
5904;SDS011;2978;42.012;24.880;2022-09-09T06:26:36;19.13;;;9.80;;
5904;SDS011;2978;42.012;24.880;2022-09-09T06:29:06;27.30;;;10.93;;
5904;SDS011;2978;42.012;24.880;2022-09-09T06:31:32;19.87;;;7.80;;
5904;SDS011;2978;42.012;24.880;2022-09-09T06:33:59;16.47;;;8.93;;
5904;SDS011;2978;42.012;24.880;2022-09-09T06:38:51;16.80;;;7.80;;
5904;SDS011;2978;42.012;24.880;2022-09-09T06:41:17;13.37;;;8.17;;
5904;SDS011;2978;42.012;24.880;2022-09-09T06:43:44;14.40;;;8.63;;
5904;SDS011;2978;42.012;24.880;2022-09-09T06:46:12;12.97;;;7.40;;
5904;SDS011;2978;42.012;24.880;2022-09-09T06:48:42;25.60;;;8.40;;
5904;SDS011;2978;42.012;24.880;2022-09-09T06:51:15;16.03;;;8.30;;
5904;SDS011;2978;42.012;24.880;2022-09-09T06:53:43;18.23;;;7.57;;
5904;SDS011;2978;42.012;24.880;2022-09-09T06:58:44;11.50;;;7.50;;
5904;SDS011;2978;42.012;24.880;2022-09-09T07:01:11;21.93;;;8.20;;
5904;SDS011;2978;42.012;24.880;2022-09-09T07:03:39;15.63;;;8.00;;
5904;SDS011;2978;42.012;24.880;2022-09-09T07:06:05;23.53;;;8.00;;
5904;SDS011;2978;42.012;24.880;2022-09-09T07:08:32;19.13;;;9.00;;
5904;SDS011;2978;42.012;24.880;2022-09-09T07:11:05;22.97;;;8.83;;
5904;SDS011;2978;42.012;24.880;2022-09-09T07:13:33;13.50;;;7.30;;
5904;SDS011;2978;42.012;24.880;2022-09-09T07:16:09;12.70;;;8.00;;
5904;SDS011;2978;42.012;24.880;2022-09-09T07:18:36;14.20;;;7.50;;
5904;SDS011;2978;42.012;24.880;2022-09-09T07:21:02;24.93;;;9.20;;
5904;SDS011;2978;42.012;24.880;2022-09-09T07:23:29;12.10;;;8.63;;
5904;SDS011;2978;42.012;24.880;2022-09-09T07:25:56;18.07;;;8.87;;
5904;SDS011;2978;42.012;24.880;2022-09-09T07:28:22;14.43;;;8.10;;
5904;SDS011;2978;42.012;24.880;2022-09-09T07:30:55;13.07;;;8.77;;
5904;SDS011;2978;42.012;24.880;2022-09-09T07:33:22;17.83;;;8.20;;
5904;SDS011;2978;42.012;24.880;2022-09-09T07:35:49;30.60;;;8.67;;
5904;SDS011;2978;42.012;24.880;2022-09-09T07:38:14;14.47;;;8.87;;
5904;SDS011;2978;42.012;24.880;2022-09-09T07:40:40;15.63;;;7.23;;
5904;SDS011;2978;42.012;24.880;2022-09-09T07:43:06;26.03;;;8.50;;
5904;SDS011;2978;42.012;24.880;2022-09-09T07:45:33;20.40;;;8.53;;
5904;SDS011;2978;42.012;24.880;2022-09-09T07:47:59;10.60;;;7.10;;
5904;SDS011;2978;42.012;24.880;2022-09-09T07:50:25;16.33;;;7.57;;
5904;SDS011;2978;42.012;24.880;2022-09-09T07:52:51;18.37;;;8.00;;
5904;SDS011;2978;42.012;24.880;2022-09-09T07:55:17;12.30;;;7.67;;
5904;SDS011;2978;42.012;24.880;2022-09-09T07:57:42;12.73;;;8.30;;
5904;SDS011;2978;42.012;24.880;2022-09-09T08:00:09;23.90;;;9.13;;
5904;SDS011;2978;42.012;24.880;2022-09-09T08:02:35;11.77;;;8.43;;
5904;SDS011;2978;42.012;24.880;2022-09-09T08:05:01;18.43;;;8.30;;
5904;SDS011;2978;42.012;24.880;2022-09-09T08:07:29;22.07;;;8.57;;
5904;SDS011;2978;42.012;24.880;2022-09-09T08:13:48;21.20;;;7.77;;
5904;SDS011;2978;42.012;24.880;2022-09-09T08:16:44;16.63;;;8.40;;
5904;SDS011;2978;42.012;24.880;2022-09-09T08:19:12;10.60;;;7.70;;
5904;SDS011;2978;42.012;24.880;2022-09-09T08:21:40;15.67;;;9.47;;
5904;SDS011;2978;42.012;24.880;2022-09-09T08:24:07;11.13;;;8.30;;
5904;SDS011;2978;42.012;24.880;2022-09-09T08:26:45;21.70;;;9.47;;
5904;SDS011;2978;42.012;24.880;2022-09-09T08:29:16;20.10;;;8.90;;
5904;SDS011;2978;42.012;24.880;2022-09-09T08:31:44;18.60;;;7.93;;
5904;SDS011;2978;42.012;24.880;2022-09-09T08:34:20;11.07;;;8.10;;
5904;SDS011;2978;42.012;24.880;2022-09-09T08:36:47;12.90;;;8.60;;
5904;SDS011;2978;42.012;24.880;2022-09-09T08:39:15;11.40;;;8.60;;
5904;SDS011;2978;42.012;24.880;2022-09-09T08:47:22;12.03;;;7.27;;
5904;SDS011;2978;42.012;24.880;2022-09-09T08:50:01;10.33;;;6.57;;
5904;SDS011;2978;42.012;24.880;2022-09-09T08:58:14;10.63;;;7.77;;
5904;SDS011;2978;42.012;24.880;2022-09-09T09:03:30;22.10;;;7.70;;
5904;SDS011;2978;42.012;24.880;2022-09-09T09:14:27;10.87;;;7.70;;
5904;SDS011;2978;42.012;24.880;2022-09-09T09:19:23;14.13;;;7.50;;
5904;SDS011;2978;42.012;24.880;2022-09-09T09:21:54;20.77;;;6.93;;
5904;SDS011;2978;42.012;24.880;2022-09-09T09:24:27;10.20;;;7.00;;
5904;SDS011;2978;42.012;24.880;2022-09-09T09:27:13;8.43;;;6.70;;
5904;SDS011;2978;42.012;24.880;2022-09-09T09:29:40;14.80;;;7.13;;
5904;SDS011;2978;42.012;24.880;2022-09-09T09:32:09;13.43;;;6.60;;
5904;SDS011;2978;42.012;24.880;2022-09-09T09:34:40;9.53;;;6.70;;
5904;SDS011;2978;42.012;24.880;2022-09-09T09:37:12;14.50;;;7.20;;
5904;SDS011;2978;42.012;24.880;2022-09-09T09:39:44;9.90;;;7.10;;
5904;SDS011;2978;42.012;24.880;2022-09-09T09:42:13;11.33;;;7.70;;
5904;SDS011;2978;42.012;24.880;2022-09-09T09:44:42;11.83;;;7.50;;
5904;SDS011;2978;42.012;24.880;2022-09-09T09:47:12;8.83;;;7.60;;
5904;SDS011;2978;42.012;24.880;2022-09-09T09:49:50;8.10;;;6.50;;
5904;SDS011;2978;42.012;24.880;2022-09-09T09:52:19;8.10;;;5.97;;
5904;SDS011;2978;42.012;24.880;2022-09-09T09:54:49;8.93;;;6.80;;
5904;SDS011;2978;42.012;24.880;2022-09-09T09:57:16;10.93;;;6.90;;
5904;SDS011;2978;42.012;24.880;2022-09-09T09:59:43;12.70;;;6.77;;
5904;SDS011;2978;42.012;24.880;2022-09-09T10:02:17;10.37;;;6.57;;
5904;SDS011;2978;42.012;24.880;2022-09-09T10:05:05;13.43;;;6.20;;
5904;SDS011;2978;42.012;24.880;2022-09-09T10:08:05;12.40;;;5.77;;
5904;SDS011;2978;42.012;24.880;2022-09-09T10:10:52;22.53;;;7.17;;
5904;SDS011;2978;42.012;24.880;2022-09-09T10:19:05;9.13;;;6.07;;
5904;SDS011;2978;42.012;24.880;2022-09-09T10:30:17;10.30;;;5.00;;
5904;SDS011;2978;42.012;24.880;2022-09-09T10:32:49;13.90;;;6.07;;
5904;SDS011;2978;42.012;24.880;2022-09-09T10:35:53;12.07;;;5.97;;
5904;SDS011;2978;42.012;24.880;2022-09-09T10:38:42;8.93;;;5.23;;
5904;SDS011;2978;42.012;24.880;2022-09-09T10:49:52;9.70;;;5.27;;
5904;SDS011;2978;42.012;24.880;2022-09-09T10:52:56;12.13;;;4.87;;
5904;SDS011;2978;42.012;24.880;2022-09-09T10:58:38;15.90;;;5.10;;
5904;SDS011;2978;42.012;24.880;2022-09-09T11:01:17;12.80;;;4.47;;
5904;SDS011;2978;42.012;24.880;2022-09-09T11:03:49;10.83;;;5.20;;
5904;SDS011;2978;42.012;24.880;2022-09-09T11:06:21;7.70;;;4.47;;
5904;SDS011;2978;42.012;24.880;2022-09-09T11:08:54;8.03;;;4.80;;
5904;SDS011;2978;42.012;24.880;2022-09-09T11:11:27;9.37;;;5.00;;
5904;SDS011;2978;42.012;24.880;2022-09-09T11:17:09;7.57;;;4.77;;
5904;SDS011;2978;42.012;24.880;2022-09-09T11:19:40;6.37;;;4.73;;
5904;SDS011;2978;42.012;24.880;2022-09-09T11:24:41;10.17;;;5.30;;
5904;SDS011;2978;42.012;24.880;2022-09-09T11:38:38;9.27;;;4.30;;
5904;SDS011;2978;42.012;24.880;2022-09-09T11:41:10;7.23;;;4.50;;
5904;SDS011;2978;42.012;24.880;2022-09-09T11:46:08;8.03;;;4.63;;
5904;SDS011;2978;42.012;24.880;2022-09-09T11:48:36;7.23;;;5.20;;
5904;SDS011;2978;42.012;24.880;2022-09-09T11:51:25;5.20;;;4.50;;
5904;SDS011;2978;42.012;24.880;2022-09-09T11:53:54;7.33;;;5.03;;
5904;SDS011;2978;42.012;24.880;2022-09-09T11:56:43;6.40;;;4.33;;
5904;SDS011;2978;42.012;24.880;2022-09-09T11:59:19;15.90;;;4.80;;
5904;SDS011;2978;42.012;24.880;2022-09-09T12:07:38;6.73;;;3.93;;
5904;SDS011;2978;42.012;24.880;2022-09-09T12:12:37;6.50;;;4.67;;
5904;SDS011;2978;42.012;24.880;2022-09-09T12:17:36;14.23;;;4.13;;
5904;SDS011;2978;42.012;24.880;2022-09-09T12:20:26;7.63;;;4.47;;
5904;SDS011;2978;42.012;24.880;2022-09-09T12:29:09;6.30;;;4.83;;
5904;SDS011;2978;42.012;24.880;2022-09-09T12:40:00;6.90;;;4.20;;
5904;SDS011;2978;42.012;24.880;2022-09-09T12:42:28;13.20;;;4.30;;
5904;SDS011;2978;42.012;24.880;2022-09-09T12:44:58;12.80;;;5.67;;
5904;SDS011;2978;42.012;24.880;2022-09-09T12:47:28;8.07;;;4.03;;
5904;SDS011;2978;42.012;24.880;2022-09-09T12:50:26;7.80;;;4.80;;
5904;SDS011;2978;42.012;24.880;2022-09-09T12:52:55;9.13;;;4.70;;
5904;SDS011;2978;42.012;24.880;2022-09-09T12:55:25;10.43;;;4.97;;
5904;SDS011;2978;42.012;24.880;2022-09-09T12:57:56;7.63;;;4.37;;
5904;SDS011;2978;42.012;24.880;2022-09-09T13:00:24;9.90;;;4.70;;
5904;SDS011;2978;42.012;24.880;2022-09-09T13:02:54;9.97;;;4.70;;
5904;SDS011;2978;42.012;24.880;2022-09-09T13:05:23;9.33;;;5.20;;
5904;SDS011;2978;42.012;24.880;2022-09-09T13:08:06;10.03;;;4.70;;
5904;SDS011;2978;42.012;24.880;2022-09-09T13:10:49;11.50;;;5.00;;
5904;SDS011;2978;42.012;24.880;2022-09-09T13:13:23;10.00;;;4.60;;
5904;SDS011;2978;42.012;24.880;2022-09-09T13:16:05;8.70;;;4.53;;
5904;SDS011;2978;42.012;24.880;2022-09-09T13:18:43;10.70;;;5.10;;
5904;SDS011;2978;42.012;24.880;2022-09-09T13:21:09;17.40;;;4.80;;
5904;SDS011;2978;42.012;24.880;2022-09-09T13:23:35;8.93;;;4.93;;
5904;SDS011;2978;42.012;24.880;2022-09-09T13:26:03;11.57;;;4.87;;
5904;SDS011;2978;42.012;24.880;2022-09-09T13:28:33;10.43;;;4.87;;
5904;SDS011;2978;42.012;24.880;2022-09-09T13:31:04;10.43;;;4.90;;
5904;SDS011;2978;42.012;24.880;2022-09-09T13:33:33;8.50;;;4.67;;
5904;SDS011;2978;42.012;24.880;2022-09-09T13:36:11;10.07;;;4.40;;
5904;SDS011;2978;42.012;24.880;2022-09-09T13:41:19;14.73;;;4.60;;
5904;SDS011;2978;42.012;24.880;2022-09-09T13:43:53;10.73;;;4.90;;
5904;SDS011;2978;42.012;24.880;2022-09-09T13:46:24;15.13;;;5.87;;
5904;SDS011;2978;42.012;24.880;2022-09-09T13:51:42;13.87;;;5.40;;
5904;SDS011;2978;42.012;24.880;2022-09-09T13:54:13;10.87;;;5.43;;
5904;SDS011;2978;42.012;24.880;2022-09-09T13:57:18;8.03;;;4.83;;
5904;SDS011;2978;42.012;24.880;2022-09-09T13:59:46;10.53;;;4.40;;
5904;SDS011;2978;42.012;24.880;2022-09-09T14:02:12;8.47;;;5.20;;
5904;SDS011;2978;42.012;24.880;2022-09-09T14:11:12;8.00;;;5.30;;
5904;SDS011;2978;42.012;24.880;2022-09-09T14:13:38;12.30;;;4.90;;
5904;SDS011;2978;42.012;24.880;2022-09-09T14:16:11;8.10;;;5.30;;
5904;SDS011;2978;42.012;24.880;2022-09-09T14:18:46;13.30;;;5.20;;
5904;SDS011;2978;42.012;24.880;2022-09-09T14:21:12;22.43;;;6.90;;
5904;SDS011;2978;42.012;24.880;2022-09-09T14:23:39;11.30;;;5.00;;
5904;SDS011;2978;42.012;24.880;2022-09-09T14:26:23;9.17;;;5.90;;
5904;SDS011;2978;42.012;24.880;2022-09-09T14:29:34;9.60;;;4.93;;
5904;SDS011;2978;42.012;24.880;2022-09-09T14:31:59;10.10;;;5.37;;
5904;SDS011;2978;42.012;24.880;2022-09-09T14:34:26;10.23;;;5.77;;
5904;SDS011;2978;42.012;24.880;2022-09-09T14:36:51;11.30;;;5.70;;
5904;SDS011;2978;42.012;24.880;2022-09-09T14:39:17;10.60;;;5.23;;
5904;SDS011;2978;42.012;24.880;2022-09-09T14:41:42;6.23;;;4.90;;
5904;SDS011;2978;42.012;24.880;2022-09-09T14:44:08;7.47;;;4.33;;
5904;SDS011;2978;42.012;24.880;2022-09-09T14:46:33;10.00;;;4.80;;
5904;SDS011;2978;42.012;24.880;2022-09-09T14:48:59;16.73;;;5.07;;
5904;SDS011;2978;42.012;24.880;2022-09-09T14:51:24;9.07;;;5.43;;
5904;SDS011;2978;42.012;24.880;2022-09-09T14:53:52;12.87;;;5.83;;
5904;SDS011;2978;42.012;24.880;2022-09-09T14:56:19;9.33;;;5.77;;
5904;SDS011;2978;42.012;24.880;2022-09-09T14:58:48;16.20;;;5.40;;
5904;SDS011;2978;42.012;24.880;2022-09-09T15:01:15;9.23;;;6.10;;
5904;SDS011;2978;42.012;24.880;2022-09-09T15:03:41;9.17;;;5.80;;
5904;SDS011;2978;42.012;24.880;2022-09-09T15:06:11;11.67;;;5.80;;
5904;SDS011;2978;42.012;24.880;2022-09-09T15:08:38;11.00;;;6.30;;
5904;SDS011;2978;42.012;24.880;2022-09-09T15:11:07;12.40;;;6.30;;
5904;SDS011;2978;42.012;24.880;2022-09-09T15:13:33;20.93;;;6.70;;
5904;SDS011;2978;42.012;24.880;2022-09-09T15:16:06;12.57;;;6.60;;
5904;SDS011;2978;42.012;24.880;2022-09-09T15:18:33;25.80;;;6.07;;
5904;SDS011;2978;42.012;24.880;2022-09-09T15:20:59;11.80;;;6.90;;
5904;SDS011;2978;42.012;24.880;2022-09-09T15:23:26;22.00;;;7.23;;
5904;SDS011;2978;42.012;24.880;2022-09-09T15:25:52;14.50;;;6.20;;
5904;SDS011;2978;42.012;24.880;2022-09-09T15:28:19;11.93;;;7.03;;
5904;SDS011;2978;42.012;24.880;2022-09-09T15:30:51;12.07;;;6.57;;
5904;SDS011;2978;42.012;24.880;2022-09-09T15:33:18;16.97;;;6.43;;
5904;SDS011;2978;42.012;24.880;2022-09-09T15:35:44;10.90;;;6.53;;
5904;SDS011;2978;42.012;24.880;2022-09-09T15:38:10;9.00;;;6.13;;
5904;SDS011;2978;42.012;24.880;2022-09-09T15:40:38;16.13;;;6.63;;
5904;SDS011;2978;42.012;24.880;2022-09-09T15:43:04;13.60;;;7.60;;
5904;SDS011;2978;42.012;24.880;2022-09-09T15:45:31;13.10;;;5.80;;
5904;SDS011;2978;42.012;24.880;2022-09-09T15:47:58;13.47;;;6.83;;
5904;SDS011;2978;42.012;24.880;2022-09-09T15:50:25;14.30;;;7.20;;
5904;SDS011;2978;42.012;24.880;2022-09-09T15:52:51;13.00;;;5.83;;
5904;SDS011;2978;42.012;24.880;2022-09-09T15:55:17;17.17;;;7.90;;
5904;SDS011;2978;42.012;24.880;2022-09-09T15:57:45;13.23;;;6.50;;
5904;SDS011;2978;42.012;24.880;2022-09-09T16:00:11;15.37;;;7.27;;
5904;SDS011;2978;42.012;24.880;2022-09-09T16:02:38;10.93;;;6.50;;
5904;SDS011;2978;42.012;24.880;2022-09-09T16:05:04;13.53;;;7.13;;
5904;SDS011;2978;42.012;24.880;2022-09-09T16:07:30;13.90;;;7.30;;
5904;SDS011;2978;42.012;24.880;2022-09-09T16:09:56;22.47;;;7.40;;
5904;SDS011;2978;42.012;24.880;2022-09-09T16:12:21;18.20;;;8.00;;
5904;SDS011;2978;42.012;24.880;2022-09-09T16:14:46;12.43;;;7.03;;
5904;SDS011;2978;42.012;24.880;2022-09-09T16:17:12;11.80;;;8.30;;
5904;SDS011;2978;42.012;24.880;2022-09-09T16:19:39;14.47;;;8.27;;
5904;SDS011;2978;42.012;24.880;2022-09-09T16:22:04;16.53;;;9.73;;
5904;SDS011;2978;42.012;24.880;2022-09-09T16:24:31;11.97;;;8.07;;
5904;SDS011;2978;42.012;24.880;2022-09-09T16:26:58;16.77;;;7.93;;
5904;SDS011;2978;42.012;24.880;2022-09-09T16:29:23;15.10;;;8.70;;
5904;SDS011;2978;42.012;24.880;2022-09-09T16:31:52;22.00;;;8.97;;
5904;SDS011;2978;42.012;24.880;2022-09-09T16:34:19;15.63;;;9.30;;
5904;SDS011;2978;42.012;24.880;2022-09-09T16:36:46;14.63;;;8.60;;
5904;SDS011;2978;42.012;24.880;2022-09-09T16:39:14;12.90;;;7.60;;
5904;SDS011;2978;42.012;24.880;2022-09-09T16:41:41;20.30;;;8.33;;
5904;SDS011;2978;42.012;24.880;2022-09-09T16:44:09;12.77;;;9.00;;
5904;SDS011;2978;42.012;24.880;2022-09-09T16:46:37;21.83;;;9.10;;
5904;SDS011;2978;42.012;24.880;2022-09-09T16:49:05;19.60;;;9.40;;
5904;SDS011;2978;42.012;24.880;2022-09-09T16:51:36;13.37;;;8.37;;
5904;SDS011;2978;42.012;24.880;2022-09-09T16:54:07;12.70;;;7.70;;
5904;SDS011;2978;42.012;24.880;2022-09-09T16:56:36;13.33;;;7.53;;
5904;SDS011;2978;42.012;24.880;2022-09-09T16:59:08;16.87;;;8.43;;
5904;SDS011;2978;42.012;24.880;2022-09-09T17:01:37;16.23;;;7.80;;
5904;SDS011;2978;42.012;24.880;2022-09-09T17:04:06;23.17;;;8.10;;
5904;SDS011;2978;42.012;24.880;2022-09-09T17:06:41;17.87;;;7.70;;
5904;SDS011;2978;42.012;24.880;2022-09-09T17:09:07;9.70;;;7.20;;
5904;SDS011;2978;42.012;24.880;2022-09-09T17:11:35;15.57;;;7.40;;
5904;SDS011;2978;42.012;24.880;2022-09-09T17:14:02;15.47;;;7.30;;
5904;SDS011;2978;42.012;24.880;2022-09-09T17:16:30;13.93;;;7.90;;
5904;SDS011;2978;42.012;24.880;2022-09-09T17:18:59;29.20;;;9.17;;
5904;SDS011;2978;42.012;24.880;2022-09-09T17:21:26;15.97;;;7.80;;
5904;SDS011;2978;42.012;24.880;2022-09-09T17:23:53;18.37;;;8.93;;
5904;SDS011;2978;42.012;24.880;2022-09-09T17:26:20;19.13;;;8.30;;
5904;SDS011;2978;42.012;24.880;2022-09-09T17:28:47;12.03;;;7.63;;
5904;SDS011;2978;42.012;24.880;2022-09-09T17:31:16;13.30;;;7.93;;
5904;SDS011;2978;42.012;24.880;2022-09-09T17:33:44;14.63;;;8.10;;
5904;SDS011;2978;42.012;24.880;2022-09-09T17:36:13;17.83;;;8.37;;
5904;SDS011;2978;42.012;24.880;2022-09-09T17:38:39;9.67;;;7.10;;
5904;SDS011;2978;42.012;24.880;2022-09-09T17:41:06;10.13;;;6.77;;
5904;SDS011;2978;42.012;24.880;2022-09-09T17:43:33;14.60;;;8.07;;
5904;SDS011;2978;42.012;24.880;2022-09-09T17:48:56;23.63;;;8.63;;
5904;SDS011;2978;42.012;24.880;2022-09-09T17:51:24;15.03;;;7.07;;
5904;SDS011;2978;42.012;24.880;2022-09-09T17:53:56;7.80;;;7.00;;
5904;SDS011;2978;42.012;24.880;2022-09-09T17:56:24;10.77;;;6.50;;
5904;SDS011;2978;42.012;24.880;2022-09-09T17:58:53;16.60;;;6.83;;
5904;SDS011;2978;42.012;24.880;2022-09-09T18:01:19;9.47;;;7.30;;
5904;SDS011;2978;42.012;24.880;2022-09-09T18:03:47;12.80;;;7.07;;